createdAt,value
2018-08-25T00:01:11.488Z,1.30
2018-08-25T00:03:43.891Z,1.30
2018-08-25T00:06:12.537Z,1.93
2018-08-25T00:08:45.564Z,1.33
2018-08-25T00:11:14.528Z,1.47
2018-08-25T00:13:46.968Z,1.40
2018-08-25T00:16:15.637Z,1.30
2018-08-25T00:18:44.576Z,1.67
2018-08-25T00:21:13.216Z,1.30
2018-08-25T00:23:41.882Z,1.20
2018-08-25T00:26:10.784Z,1.40
2018-08-25T00:28:39.467Z,1.77
2018-08-25T00:31:13.247Z,1.47
2018-08-25T00:33:42.220Z,1.40
2018-08-25T00:36:10.868Z,1.27
2018-08-25T00:38:39.573Z,1.20
2018-08-25T00:41:08.520Z,1.30
2018-08-25T00:43:37.180Z,1.50
2018-08-25T00:46:09.116Z,1.17
2018-08-25T00:48:38.068Z,1.50
2018-08-25T00:51:13.216Z,1.60
2018-08-25T00:53:41.945Z,1.60
2018-08-25T00:56:14.560Z,1.43
2018-08-25T00:58:43.418Z,2.07
2018-08-25T01:01:15.733Z,1.60
2018-08-25T01:03:44.735Z,1.37
2018-08-25T01:06:18.065Z,2.00
2018-08-25T01:08:46.699Z,1.60
2018-08-25T01:11:20.055Z,1.53
2018-08-25T01:13:48.717Z,1.60
2018-08-25T01:16:21.116Z,1.53
2018-08-25T01:18:50.027Z,1.50
2018-08-25T01:21:19.016Z,1.60
2018-08-25T01:23:51.423Z,1.97
2018-08-25T01:26:20.349Z,1.70
2018-08-25T01:28:49.909Z,2.40
2018-08-25T01:31:18.608Z,2.20
2018-08-25T01:33:47.523Z,2.30
2018-08-25T01:36:16.212Z,1.30
2018-08-25T01:38:44.895Z,1.77
2018-08-25T01:41:13.824Z,1.60
2018-08-25T01:43:42.563Z,2.00
2018-08-25T01:46:11.200Z,2.17
2018-08-25T01:48:40.176Z,1.70
2018-08-25T01:51:08.825Z,1.60
2018-08-25T01:53:41.456Z,1.50
2018-08-25T01:56:10.384Z,1.67
2018-08-25T01:58:51.791Z,1.50
2018-08-25T02:01:20.728Z,1.67
2018-08-25T02:03:49.412Z,1.60
2018-08-25T02:06:18.096Z,1.47
2018-08-25T02:08:50.227Z,1.70
2018-08-25T02:11:18.929Z,1.43
2018-08-25T02:13:51.284Z,1.40
2018-08-25T02:16:20.347Z,1.83
2018-08-25T02:18:53.230Z,1.50
2018-08-25T02:21:21.888Z,1.53
2018-08-25T02:23:50.540Z,1.40
2018-08-25T02:26:19.248Z,1.73
2018-08-25T02:28:48.243Z,1.80
2018-08-25T02:31:16.888Z,1.70
2018-08-25T02:33:45.567Z,1.70
2018-08-25T02:36:14.256Z,1.50
2018-08-25T02:38:42.949Z,1.80
2018-08-25T02:41:11.890Z,1.90
2018-08-25T02:43:40.572Z,1.80
2018-08-25T02:46:12.997Z,1.87
2018-08-25T02:48:41.938Z,1.70
2018-08-25T02:51:14.266Z,1.90
2018-08-25T02:53:42.929Z,1.77
2018-08-25T02:56:15.697Z,2.23
2018-08-25T02:58:44.364Z,1.70
2018-08-25T03:01:19.799Z,1.70
2018-08-25T03:03:48.800Z,2.00
2018-08-25T03:06:21.085Z,1.57
2018-08-25T03:08:49.783Z,2.03
2018-08-25T03:11:31.689Z,1.70
2018-08-25T03:14:00.801Z,1.80
2018-08-25T03:16:29.491Z,1.80
2018-08-25T03:18:58.304Z,1.50
2018-08-25T03:21:27.024Z,2.00
2018-08-25T03:23:56.284Z,1.63
2018-08-25T03:26:37.803Z,1.80
2018-08-25T03:29:06.455Z,1.80
2018-08-25T03:31:35.447Z,1.80
2018-08-25T03:34:04.104Z,1.90
2018-08-25T03:36:34.273Z,2.47
2018-08-25T03:39:03.304Z,1.90
2018-08-25T03:41:36.512Z,1.80
2018-08-25T03:44:05.387Z,1.60
2018-08-25T03:46:38.445Z,1.80
2018-08-25T03:49:07.406Z,1.93
2018-08-25T03:54:11.244Z,2.17
2018-08-25T03:56:43.703Z,2.00
2018-08-25T03:59:12.418Z,1.70
2018-08-25T04:01:45.501Z,2.13
2018-08-25T04:04:14.337Z,1.90
2018-08-25T04:06:43.156Z,1.47
2018-08-25T04:09:13.951Z,1.53
2018-08-25T04:11:42.957Z,1.73
2018-08-25T04:14:12.696Z,1.30
2018-08-25T04:16:41.860Z,1.17
2018-08-25T04:19:15.864Z,0.83
2018-08-25T04:21:44.901Z,0.90
2018-08-25T04:24:14.452Z,1.20
2018-08-25T04:26:43.128Z,0.93
2018-08-25T04:29:11.874Z,0.90
2018-08-25T04:31:40.825Z,0.83
2018-08-25T04:34:11.907Z,1.00
2018-08-25T04:36:40.556Z,1.10
2018-08-25T04:39:11.661Z,1.20
2018-08-25T04:41:40.319Z,1.10
2018-08-25T04:44:12.793Z,1.30
2018-08-25T04:46:41.716Z,1.20
2018-08-25T04:49:19.835Z,1.70
2018-08-25T04:51:49.044Z,1.47
2018-08-25T04:54:18.962Z,1.43
2018-08-25T04:56:47.701Z,1.80
2018-08-25T04:59:20.265Z,1.83
2018-08-25T05:01:49.730Z,1.67
2018-08-25T05:04:30.871Z,1.73
2018-08-25T05:06:59.504Z,1.80
2018-08-25T05:09:28.439Z,1.83
2018-08-25T05:11:57.763Z,1.70
2018-08-25T05:14:26.477Z,1.97
2018-08-25T05:16:55.415Z,1.90
2018-08-25T05:19:37.126Z,2.40
2018-08-25T05:22:05.889Z,2.20
2018-08-25T05:24:34.898Z,2.00
2018-08-25T05:27:03.620Z,2.50
2018-08-25T05:29:35.628Z,2.30
2018-08-25T05:32:04.592Z,2.40
2018-08-25T05:34:36.996Z,2.50
2018-08-25T05:37:05.688Z,1.77
2018-08-25T05:39:38.617Z,2.10
2018-08-25T05:42:07.420Z,2.67
2018-08-25T05:44:40.460Z,1.83
2018-08-25T05:47:09.395Z,2.23
2018-08-25T05:49:39.272Z,2.60
2018-08-25T05:52:10.771Z,2.10
2018-08-25T05:54:39.491Z,2.10
2018-08-25T05:57:08.184Z,2.40
2018-08-25T05:59:37.123Z,2.50
2018-08-25T06:02:05.952Z,2.20
2018-08-25T06:04:34.663Z,2.20
2018-08-25T06:07:03.388Z,2.50
2018-08-25T06:09:32.051Z,2.70
2018-08-25T06:12:01.171Z,2.93
2018-08-25T06:14:29.854Z,2.97
2018-08-25T06:17:00.240Z,3.00
2018-08-25T06:19:29.255Z,2.87
2018-08-25T06:22:02.466Z,2.90
2018-08-25T06:24:31.143Z,2.90
2018-08-25T06:27:12.354Z,3.10
2018-08-25T06:29:41.210Z,3.03
2018-08-25T06:32:10.694Z,3.40
2018-08-25T06:34:39.516Z,3.70
2018-08-25T06:37:11.573Z,4.00
2018-08-25T06:39:40.717Z,3.80
2018-08-25T06:42:13.333Z,3.60
2018-08-25T06:44:42.247Z,3.57
2018-08-25T06:47:17.894Z,3.43
2018-08-25T06:49:46.584Z,4.17
2018-08-25T06:52:19.079Z,3.77
2018-08-25T06:54:48.954Z,3.70
2018-08-25T06:57:21.360Z,3.53
2018-08-25T06:59:50.008Z,3.83
2018-08-25T07:02:23.277Z,3.30
2018-08-25T07:04:52.010Z,3.93
2018-08-25T07:07:25.314Z,3.03
2018-08-25T07:09:54.791Z,3.40
2018-08-25T07:12:28.888Z,3.60
2018-08-25T07:14:58.385Z,3.53
2018-08-25T07:17:31.473Z,3.00
2018-08-25T07:20:00.159Z,3.20
2018-08-25T07:22:32.692Z,2.83
2018-08-25T07:25:01.384Z,3.00
2018-08-25T07:27:35.352Z,3.20
2018-08-25T07:30:04.380Z,3.07
2018-08-25T07:32:37.500Z,3.00
2018-08-25T07:35:06.241Z,3.30
2018-08-25T07:37:39.554Z,3.27
2018-08-25T07:40:08.231Z,2.87
2018-08-25T07:42:41.001Z,2.73
2018-08-25T07:45:10.397Z,2.83
2018-08-25T07:50:12.941Z,2.53
2018-08-25T07:52:41.604Z,2.83
2018-08-25T07:55:10.263Z,3.33
2018-08-25T07:57:39.186Z,2.77
2018-08-25T08:00:08.331Z,3.17
2018-08-25T08:02:37.164Z,2.70
2018-08-25T08:05:06.196Z,3.10
2018-08-25T08:07:34.866Z,3.17
2018-08-25T08:10:04.242Z,2.70
2018-08-25T08:12:33.412Z,3.37
2018-08-25T08:15:03.588Z,2.60
2018-08-25T08:17:32.757Z,2.80
2018-08-25T08:20:06.884Z,2.60
2018-08-25T08:22:35.685Z,2.53
2018-08-25T08:25:10.177Z,3.17
2018-08-25T08:27:39.265Z,2.50
2018-08-25T08:30:20.432Z,2.13
2018-08-25T08:32:50.078Z,2.70
2018-08-25T08:35:18.773Z,2.20
2018-08-25T08:37:48.324Z,2.40
2018-08-25T08:40:17.039Z,2.73
2018-08-25T08:42:45.695Z,2.20
2018-08-25T08:45:18.617Z,2.20
2018-08-25T08:47:47.287Z,2.13
2018-08-25T08:50:21.288Z,2.17
2018-08-25T08:52:50.294Z,2.30
2018-08-25T08:55:31.806Z,2.23
2018-08-25T08:58:00.854Z,2.27
2018-08-25T09:00:29.514Z,2.10
2018-08-25T09:02:58.279Z,2.10
2018-08-25T09:05:27.399Z,1.90
2018-08-25T09:07:56.054Z,1.80
2018-08-25T09:10:31.276Z,2.63
2018-08-25T09:13:00.277Z,2.03
2018-08-25T09:15:42.062Z,2.17
2018-08-25T09:18:11.350Z,2.03
2018-08-25T09:20:40.013Z,2.40
2018-08-25T09:23:09.699Z,2.17
2018-08-25T09:25:38.843Z,2.20
2018-08-25T09:28:07.533Z,2.23
2018-08-25T09:30:48.592Z,2.90
2018-08-25T09:33:17.610Z,2.20
2018-08-25T09:35:46.341Z,1.90
2018-08-25T09:38:15.057Z,2.73
2018-08-25T09:40:47.812Z,1.90
2018-08-25T09:43:16.584Z,2.00
2018-08-25T09:45:48.882Z,2.07
2018-08-25T09:48:18.047Z,2.30
2018-08-25T09:50:51.517Z,2.37
2018-08-25T09:53:20.925Z,2.30
2018-08-25T09:55:54.374Z,2.97
2018-08-25T09:58:23.493Z,3.43
2018-08-25T10:01:05.889Z,3.00
2018-08-25T10:03:35.395Z,2.87
2018-08-25T10:06:04.410Z,3.07
2018-08-25T10:08:33.549Z,2.73
2018-08-25T10:11:03.788Z,2.67
2018-08-25T10:13:33.246Z,2.47
2018-08-25T10:16:14.264Z,2.90
2018-08-25T10:18:43.712Z,2.37
2018-08-25T10:21:12.363Z,3.50
2018-08-25T10:23:41.104Z,2.53
2018-08-25T10:26:12.220Z,3.03
2018-08-25T10:28:41.030Z,3.13
2018-08-25T10:31:14.648Z,2.80
2018-08-25T10:33:43.611Z,3.00
2018-08-25T10:36:16.153Z,2.43
2018-08-25T10:38:44.894Z,2.27
2018-08-25T10:41:18.497Z,1.93
2018-08-25T10:43:47.188Z,1.83
2018-08-25T10:46:22.294Z,1.87
2018-08-25T10:48:51.369Z,3.03
2018-08-25T10:51:32.791Z,2.30
2018-08-25T10:54:01.835Z,2.40
2018-08-25T10:56:30.527Z,2.57
2018-08-25T10:58:59.182Z,3.50
2018-08-25T11:04:15.709Z,2.00
2018-08-25T11:06:44.501Z,2.13
2018-08-25T11:09:14.232Z,2.30
2018-08-25T11:11:43.044Z,1.83
2018-08-25T11:14:12.033Z,2.23
2018-08-25T11:16:41.232Z,1.90
2018-08-25T11:19:10.365Z,2.10
2018-08-25T11:21:39.044Z,2.10
2018-08-25T11:24:08.088Z,2.20
2018-08-25T11:26:49.325Z,2.47
2018-08-25T11:29:18.515Z,2.13
2018-08-25T11:31:47.769Z,2.50
2018-08-25T11:34:16.919Z,1.90
2018-08-25T11:36:48.890Z,2.40
2018-08-25T11:39:18.121Z,2.20
2018-08-25T11:41:50.770Z,2.20
2018-08-25T11:44:21.924Z,1.80
2018-08-25T11:47:08.545Z,2.13
2018-08-25T11:49:37.533Z,2.30
2018-08-25T11:52:06.260Z,1.70
2018-08-25T11:54:34.949Z,2.00
2018-08-25T11:57:05.633Z,1.80
2018-08-25T11:59:34.308Z,1.60
2018-08-25T12:02:03.159Z,1.60
2018-08-25T12:04:31.949Z,1.77
2018-08-25T12:07:04.512Z,1.60
2018-08-25T12:09:39.813Z,1.73
2018-08-25T12:12:13.815Z,1.70
2018-08-25T12:14:43.089Z,1.77
2018-08-25T12:17:11.748Z,1.40
2018-08-25T12:19:40.698Z,1.27
2018-08-25T12:22:21.619Z,1.20
2018-08-25T12:24:51.082Z,1.23
2018-08-25T12:27:19.783Z,1.47
2018-08-25T12:29:48.905Z,1.40
2018-08-25T12:32:18.580Z,1.40
2018-08-25T12:34:47.244Z,1.37
2018-08-25T12:37:21.405Z,2.13
2018-08-25T12:39:50.553Z,1.67
2018-08-25T12:42:22.664Z,1.13
2018-08-25T12:44:51.679Z,1.30
2018-08-25T12:47:28.167Z,1.30
2018-08-25T12:49:58.059Z,1.40
2018-08-25T12:52:29.561Z,1.60
2018-08-25T12:54:58.708Z,1.53
2018-08-25T12:57:31.218Z,1.90
2018-08-25T13:00:00.621Z,1.43
2018-08-25T13:02:33.694Z,1.60
2018-08-25T13:05:02.633Z,1.97
2018-08-25T13:07:35.157Z,1.90
2018-08-25T13:10:03.976Z,1.90
2018-08-25T13:12:38.888Z,1.83
2018-08-25T13:15:07.709Z,1.80
2018-08-25T13:17:39.918Z,1.80
2018-08-25T13:20:09.120Z,1.70
2018-08-25T13:22:41.336Z,1.80
2018-08-25T13:25:10.849Z,1.60
2018-08-25T13:27:46.323Z,1.80
2018-08-25T13:30:16.303Z,3.23
2018-08-25T13:32:58.526Z,2.10
2018-08-25T13:35:27.297Z,2.30
2018-08-25T13:37:56.080Z,2.30
2018-08-25T13:40:25.293Z,3.03
2018-08-25T13:42:55.744Z,2.00
2018-08-25T13:45:24.467Z,1.93
2018-08-25T13:47:57.240Z,2.13
2018-08-25T13:50:25.954Z,2.20
2018-08-25T13:52:59.361Z,2.07
2018-08-25T13:55:28.160Z,1.93
2018-08-25T13:58:01.124Z,2.03
2018-08-25T14:00:30.845Z,2.50
2018-08-25T14:03:00.144Z,1.80
2018-08-25T14:05:32.624Z,4.87
2018-08-25T14:08:01.302Z,3.23
2018-08-25T14:10:29.978Z,2.93
2018-08-25T14:12:59.925Z,2.60
2018-08-25T14:15:28.615Z,3.13
2018-08-25T14:17:57.320Z,2.93
2018-08-25T14:20:26.257Z,2.40
2018-08-25T14:22:54.932Z,2.90
2018-08-25T14:25:23.587Z,2.13
2018-08-25T14:27:52.608Z,2.03
2018-08-25T14:30:21.390Z,1.80
2018-08-25T14:32:50.176Z,2.10
2018-08-25T14:35:23.583Z,2.00
2018-08-25T14:37:52.268Z,2.33
2018-08-25T14:40:27.943Z,2.10
2018-08-25T14:42:57.237Z,2.20
2018-08-25T14:45:27.937Z,1.80
2018-08-25T14:47:56.848Z,1.80
2018-08-25T14:50:29.682Z,1.80
2018-08-25T14:52:58.412Z,1.87
2018-08-25T14:55:32.218Z,2.40
2018-08-25T14:58:00.936Z,2.00
2018-08-25T15:00:35.770Z,3.77
2018-08-25T15:03:04.798Z,2.40
2018-08-25T15:05:40.390Z,2.60
2018-08-25T15:08:09.338Z,2.50
2018-08-25T15:10:41.434Z,2.30
2018-08-25T15:13:10.328Z,2.70
2018-08-25T15:15:43.108Z,2.30
2018-08-25T15:18:11.846Z,2.50
2018-08-25T15:20:44.726Z,2.60
2018-08-25T15:23:14.272Z,2.50
2018-08-25T15:28:18.747Z,2.63
2018-08-25T15:30:51.696Z,1.90
2018-08-25T15:33:20.956Z,2.03
2018-08-25T15:35:57.528Z,2.10
2018-08-25T15:38:26.784Z,2.33
2018-08-25T15:40:59.724Z,2.10
2018-08-25T15:43:28.404Z,1.80
2018-08-25T15:46:02.757Z,1.77
2018-08-25T15:48:31.891Z,1.70
2018-08-25T15:51:03.859Z,1.60
2018-08-25T15:53:33.253Z,1.57
2018-08-25T15:56:06.900Z,2.03
2018-08-25T15:58:35.663Z,2.27
2018-08-25T16:01:11.197Z,2.23
2018-08-25T16:03:40.087Z,2.30
2018-08-25T16:06:13.369Z,2.10
2018-08-25T16:08:42.508Z,2.20
2018-08-25T16:11:16.266Z,1.80
2018-08-25T16:13:45.305Z,2.20
2018-08-25T16:16:23.820Z,2.50
2018-08-25T16:18:52.557Z,2.03
2018-08-25T16:21:21.617Z,1.80
2018-08-25T16:23:50.284Z,2.30
2018-08-25T16:26:31.436Z,2.30
2018-08-25T16:29:00.352Z,2.40
2018-08-25T16:31:29.505Z,2.10
2018-08-25T16:33:58.333Z,1.77
2018-08-25T16:36:28.813Z,2.33
2018-08-25T16:38:57.958Z,1.90
2018-08-25T16:41:39.197Z,2.00
2018-08-25T16:44:08.144Z,1.87
2018-08-25T16:46:37.440Z,1.80
2018-08-25T16:49:06.724Z,1.80
2018-08-25T16:51:36.217Z,1.60
2018-08-25T16:54:05.400Z,2.00
2018-08-25T16:56:38.697Z,1.70
2018-08-25T16:59:08.609Z,1.80
2018-08-25T17:01:40.354Z,2.00
2018-08-25T17:04:09.561Z,1.83
2018-08-25T17:06:45.559Z,1.60
2018-08-25T17:09:14.710Z,2.00
2018-08-25T17:11:46.831Z,1.40
2018-08-25T17:14:16.466Z,1.63
2018-08-25T17:16:57.942Z,1.60
2018-08-25T17:19:26.675Z,1.83
2018-08-25T17:21:55.553Z,1.50
2018-08-25T17:24:24.560Z,1.20
2018-08-25T17:26:56.555Z,1.33
2018-08-25T17:29:25.242Z,1.50
2018-08-25T17:32:06.720Z,1.10
2018-08-25T17:34:35.441Z,1.53
2018-08-25T17:37:04.527Z,0.90
2018-08-25T17:39:33.212Z,0.90
2018-08-25T17:42:03.318Z,0.93
2018-08-25T17:44:32.276Z,0.97
2018-08-25T17:47:07.480Z,0.90
2018-08-25T17:49:37.132Z,1.00
2018-08-25T17:52:10.036Z,0.70
2018-08-25T17:54:38.729Z,0.80
2018-08-25T17:57:11.944Z,0.90
2018-08-25T17:59:40.697Z,0.70
2018-08-25T18:02:15.319Z,0.90
2018-08-25T18:04:44.132Z,0.90
2018-08-25T18:07:25.912Z,0.97
2018-08-25T18:09:55.187Z,1.00
2018-08-25T18:12:23.887Z,0.80
2018-08-25T18:14:52.756Z,1.00
2018-08-25T18:17:22.755Z,0.70
2018-08-25T18:19:51.456Z,0.80
2018-08-25T18:22:33.213Z,1.00
2018-08-25T18:25:02.264Z,1.00
2018-08-25T18:27:30.963Z,0.90
2018-08-25T18:29:59.957Z,1.00
2018-08-25T18:32:29.805Z,0.97
2018-08-25T18:34:58.571Z,0.97
2018-08-25T18:37:40.144Z,1.00
2018-08-25T18:40:09.205Z,0.90
2018-08-25T18:42:38.157Z,0.97
2018-08-25T18:45:06.954Z,0.87
2018-08-25T18:50:11.779Z,1.07
2018-08-25T18:52:40.815Z,0.77
2018-08-25T18:55:09.564Z,1.00
2018-08-25T18:57:42.169Z,0.97
2018-08-25T19:00:11.301Z,0.80
2018-08-25T19:02:44.100Z,0.83
2018-08-25T19:05:13.461Z,1.00
2018-08-25T19:07:49.096Z,1.30
2018-08-25T19:10:17.988Z,1.10
2018-08-25T19:12:59.028Z,1.27
2018-08-25T19:15:28.092Z,1.00
2018-08-25T19:17:56.746Z,0.80
2018-08-25T19:20:25.408Z,1.30
2018-08-25T19:22:55.383Z,1.60
2018-08-25T19:25:24.085Z,1.17
2018-08-25T19:27:56.748Z,1.00
2018-08-25T19:30:25.686Z,1.07
2018-08-25T19:32:58.838Z,1.30
2018-08-25T19:35:27.539Z,1.40
2018-08-25T19:37:57.145Z,0.80
2018-08-25T19:40:29.723Z,1.40
2018-08-25T19:42:58.393Z,1.30
2018-08-25T19:45:27.344Z,1.60
2018-08-25T19:47:56.373Z,1.70
2018-08-25T19:50:25.107Z,1.83
2018-08-25T19:52:54.076Z,1.57
2018-08-25T19:55:22.800Z,1.80
2018-08-25T19:57:51.861Z,1.93
2018-08-25T20:00:20.822Z,2.40
2018-08-25T20:02:49.525Z,2.47
2018-08-25T20:05:18.409Z,2.00
2018-08-25T20:07:51.382Z,2.10
2018-08-25T20:10:20.511Z,1.50
2018-08-25T20:12:49.224Z,1.80
2018-08-25T20:15:23.157Z,2.20
2018-08-25T20:17:52.230Z,2.03
2018-08-25T20:20:26.934Z,1.93
2018-08-25T20:22:55.995Z,2.10
2018-08-25T20:25:37.639Z,1.50
2018-08-25T20:28:06.652Z,1.67
2018-08-25T20:30:35.613Z,2.00
2018-08-25T20:33:04.444Z,2.03
2018-08-25T20:35:34.423Z,1.83
2018-08-25T20:38:03.521Z,1.60
2018-08-25T20:40:44.566Z,1.70
2018-08-25T20:43:13.812Z,2.50
2018-08-25T20:45:42.513Z,1.90
2018-08-25T20:48:11.856Z,2.20
2018-08-25T20:50:41.901Z,2.40
2018-08-25T20:53:10.608Z,2.30
2018-08-25T20:55:50.036Z,2.20
2018-08-25T20:58:19.264Z,2.13
2018-08-25T21:00:48.086Z,2.30
2018-08-25T21:03:16.808Z,2.40
2018-08-25T21:05:50.261Z,2.33
2018-08-25T21:08:18.951Z,2.80
2018-08-25T21:10:59.885Z,2.30
2018-08-25T21:13:28.888Z,2.30
2018-08-25T21:15:57.578Z,2.30
2018-08-25T21:18:26.603Z,2.60
2018-08-25T21:20:57.188Z,2.73
2018-08-25T21:23:25.864Z,3.00
2018-08-25T21:25:59.958Z,2.30
2018-08-25T21:28:28.960Z,2.57
2018-08-25T21:31:10.181Z,2.40
2018-08-25T21:33:38.863Z,2.40
2018-08-25T21:36:07.851Z,2.73
2018-08-25T21:38:36.512Z,2.33
2018-08-25T21:42:40.596Z,2.23
2018-08-25T21:45:13.380Z,2.60
2018-08-25T21:47:42.064Z,2.40
2018-08-25T21:50:14.699Z,2.40
2018-08-25T21:52:43.380Z,2.60
2018-08-25T21:55:24.737Z,2.43
2018-08-25T21:57:53.669Z,2.13
2018-08-25T22:00:22.348Z,2.57
2018-08-25T22:02:51.149Z,2.57
2018-08-25T22:05:21.344Z,3.00
2018-08-25T22:07:50.330Z,2.40
2018-08-25T22:10:25.785Z,2.30
2018-08-25T22:12:54.732Z,2.80
2018-08-25T22:15:26.527Z,2.47
2018-08-25T22:17:55.226Z,2.70
2018-08-25T22:20:29.036Z,2.20
2018-08-25T22:22:57.707Z,2.43
2018-08-25T22:25:30.566Z,2.17
2018-08-25T22:27:59.569Z,2.50
2018-08-25T22:30:33.153Z,2.30
2018-08-25T22:33:01.878Z,2.23
2018-08-25T22:35:34.739Z,2.47
2018-08-25T22:38:03.408Z,2.57
2018-08-25T22:40:36.600Z,2.80
2018-08-25T22:43:05.267Z,2.83
2018-08-25T22:45:37.419Z,2.70
2018-08-25T22:48:06.692Z,2.90
2018-08-25T22:50:35.411Z,3.73
2018-08-25T22:53:04.114Z,3.37
2018-08-25T22:55:33.050Z,3.00
2018-08-25T22:58:02.170Z,2.97
2018-08-25T23:00:30.835Z,2.70
2018-08-25T23:02:59.771Z,2.80
2018-08-25T23:05:28.430Z,2.70
2018-08-25T23:07:57.092Z,2.63
2018-08-25T23:10:26.024Z,2.70
2018-08-25T23:12:56.056Z,2.87
2018-08-25T23:15:25.493Z,2.80
2018-08-25T23:17:58.310Z,2.70
2018-08-25T23:20:26.979Z,2.70
2018-08-25T23:23:00.125Z,2.27
2018-08-25T23:25:28.795Z,3.30
2018-08-25T23:27:58.010Z,2.80
2018-08-25T23:30:30.721Z,2.30
2018-08-25T23:32:59.375Z,2.43
2018-08-25T23:35:28.332Z,2.90
2018-08-25T23:37:56.977Z,2.63
2018-08-25T23:40:25.653Z,2.70
2018-08-25T23:42:54.643Z,2.70
2018-08-25T23:45:23.312Z,2.53
2018-08-25T23:47:51.962Z,2.63
2018-08-25T23:50:20.885Z,2.53
2018-08-25T23:52:49.515Z,2.87
2018-08-25T23:55:18.174Z,2.90
2018-08-25T23:57:47.236Z,2.90
